sensor_id;sensor_type;location;lat;lon;timestamp;pressure;altitude;pressure_sealevel;temperature;humidity
69535;BME280;56754;51.568;5.048;2022-09-13T00:00:50;100990.97;;;22.06;60.49
69535;BME280;56754;51.568;5.048;2022-09-13T00:03:16;100988.22;;;22.06;60.21
69535;BME280;56754;51.568;5.048;2022-09-13T00:05:42;100985.50;;;22.06;60.22
69535;BME280;56754;51.568;5.048;2022-09-13T00:08:08;100976.56;;;22.05;60.24
69535;BME280;56754;51.568;5.048;2022-09-13T00:10:37;100973.06;;;22.04;60.44
69535;BME280;56754;51.568;5.048;2022-09-13T00:13:07;100975.03;;;22.04;60.24
69535;BME280;56754;51.568;5.048;2022-09-13T00:15:33;100974.22;;;22.03;60.35
69535;BME280;56754;51.568;5.048;2022-09-13T00:17:59;100959.84;;;22.03;60.11
69535;BME280;56754;51.568;5.048;2022-09-13T00:20:24;100961.78;;;22.02;60.25
69535;BME280;56754;51.568;5.048;2022-09-13T00:22:50;100952.84;;;22.02;60.06
69535;BME280;56754;51.568;5.048;2022-09-13T00:25:16;100954.41;;;22.03;60.40
69535;BME280;56754;51.568;5.048;2022-09-13T00:27:41;100943.91;;;22.01;60.36
69535;BME280;56754;51.568;5.048;2022-09-13T00:30:07;100952.84;;;22.02;60.49
69535;BME280;56754;51.568;5.048;2022-09-13T00:32:34;100950.13;;;22.02;60.18
69535;BME280;56754;51.568;5.048;2022-09-13T00:35:00;100949.34;;;22.01;60.42
69535;BME280;56754;51.568;5.048;2022-09-13T00:37:26;100940.00;;;22.02;60.23
69535;BME280;56754;51.568;5.048;2022-09-13T00:39:51;100933.03;;;22.01;60.43
69535;BME280;56754;51.568;5.048;2022-09-13T00:42:17;100933.03;;;22.01;60.32
69535;BME280;56754;51.568;5.048;2022-09-13T00:47:18;100931.44;;;22.00;60.42
69535;BME280;56754;51.568;5.048;2022-09-13T00:49:47;100934.56;;;21.99;60.50
69535;BME280;56754;51.568;5.048;2022-09-13T00:52:17;100935.34;;;21.99;60.15
69535;BME280;56754;51.568;5.048;2022-09-13T00:54:49;100931.84;;;21.99;60.47
69535;BME280;56754;51.568;5.048;2022-09-13T00:57:17;100927.56;;;21.98;60.31
69535;BME280;56754;51.568;5.048;2022-09-13T00:59:49;100926.00;;;21.97;60.54
69535;BME280;56754;51.568;5.048;2022-09-13T01:02:16;100929.88;;;21.96;60.30
69535;BME280;56754;51.568;5.048;2022-09-13T01:04:42;100927.94;;;21.96;60.66
69535;BME280;56754;51.568;5.048;2022-09-13T01:07:10;100927.16;;;21.96;60.70
69535;BME280;56754;51.568;5.048;2022-09-13T01:09:38;100923.66;;;21.95;60.51
69535;BME280;56754;51.568;5.048;2022-09-13T01:12:12;100928.34;;;21.95;60.51
69535;BME280;56754;51.568;5.048;2022-09-13T01:14:39;100929.50;;;21.94;60.44
69535;BME280;56754;51.568;5.048;2022-09-13T01:17:04;100928.34;;;21.95;60.70
69535;BME280;56754;51.568;5.048;2022-09-13T01:19:29;100936.88;;;21.93;60.34
69535;BME280;56754;51.568;5.048;2022-09-13T01:30:29;100925.22;;;21.93;60.51
69535;BME280;56754;51.568;5.048;2022-09-13T01:47:07;100903.44;;;21.89;60.74
69535;BME280;56754;51.568;5.048;2022-09-13T01:54:49;100897.59;;;21.87;60.44
69535;BME280;56754;51.568;5.048;2022-09-13T01:57:21;100899.53;;;21.87;61.09
69535;BME280;56754;51.568;5.048;2022-09-13T01:59:55;100899.53;;;21.87;61.00
69535;BME280;56754;51.568;5.048;2022-09-13T02:05:14;100910.44;;;21.87;60.93
69535;BME280;56754;51.568;5.048;2022-09-13T02:07:42;100906.13;;;21.86;60.90
69535;BME280;56754;51.568;5.048;2022-09-13T02:10:32;100909.66;;;21.86;60.63
69535;BME280;56754;51.568;5.048;2022-09-13T02:13:00;100908.06;;;21.85;60.81
69535;BME280;56754;51.568;5.048;2022-09-13T02:15:36;100910.78;;;21.85;60.97
69535;BME280;56754;51.568;5.048;2022-09-13T02:18:17;100908.06;;;21.85;60.97
69535;BME280;56754;51.568;5.048;2022-09-13T02:20:46;100907.31;;;21.85;60.91
69535;BME280;56754;51.568;5.048;2022-09-13T02:23:17;100911.97;;;21.84;60.80
69535;BME280;56754;51.568;5.048;2022-09-13T02:25:46;100920.13;;;21.84;61.08
69535;BME280;56754;51.568;5.048;2022-09-13T02:28:18;100922.84;;;21.84;60.78
69535;BME280;56754;51.568;5.048;2022-09-13T02:30:48;100924.03;;;21.83;61.03
69535;BME280;56754;51.568;5.048;2022-09-13T02:33:18;100925.94;;;21.83;61.11
69535;BME280;56754;51.568;5.048;2022-09-13T02:35:51;100924.41;;;21.81;60.90
69535;BME280;56754;51.568;5.048;2022-09-13T02:38:26;100925.94;;;21.83;60.70
69535;BME280;56754;51.568;5.048;2022-09-13T02:40:59;100941.50;;;21.82;60.96
69535;BME280;56754;51.568;5.048;2022-09-13T02:43:32;100927.88;;;21.82;61.10
69535;BME280;56754;51.568;5.048;2022-09-13T02:49:03;100931.00;;;21.80;61.11
69535;BME280;56754;51.568;5.048;2022-09-13T02:54:56;100930.59;;;21.78;61.02
69535;BME280;56754;51.568;5.048;2022-09-13T02:57:30;100927.13;;;21.78;60.91
69535;BME280;56754;51.568;5.048;2022-09-13T02:59:56;100928.28;;;21.77;61.01
69535;BME280;56754;51.568;5.048;2022-09-13T03:02:26;100934.50;;;21.77;61.16
69535;BME280;56754;51.568;5.048;2022-09-13T03:04:53;100936.44;;;21.77;61.26
69535;BME280;56754;51.568;5.048;2022-09-13T03:07:18;100929.06;;;21.77;60.98
69535;BME280;56754;51.568;5.048;2022-09-13T03:09:53;100928.28;;;21.77;60.82
69535;BME280;56754;51.568;5.048;2022-09-13T03:18:45;100942.25;;;21.75;60.81
69535;BME280;56754;51.568;5.048;2022-09-13T03:24:06;100923.22;;;21.75;60.98
69535;BME280;56754;51.568;5.048;2022-09-13T03:27:08;100924.38;;;21.74;60.75
69535;BME280;56754;51.568;5.048;2022-09-13T03:32:26;100930.19;;;21.73;60.78
69535;BME280;56754;51.568;5.048;2022-09-13T03:34:58;100934.47;;;21.74;60.79
69535;BME280;56754;51.568;5.048;2022-09-13T03:37:35;100928.25;;;21.73;60.92
69535;BME280;56754;51.568;5.048;2022-09-13T03:40:12;100932.91;;;21.73;60.66
69535;BME280;56754;51.568;5.048;2022-09-13T03:45:08;100917.75;;;21.72;60.94
69535;BME280;56754;51.568;5.048;2022-09-13T03:47:35;100911.53;;;21.71;61.07
69535;BME280;56754;51.568;5.048;2022-09-13T03:50:05;100909.19;;;21.70;60.39
69535;BME280;56754;51.568;5.048;2022-09-13T03:52:32;100922.78;;;21.70;60.68
69535;BME280;56754;51.568;5.048;2022-09-13T03:54:57;100925.50;;;21.70;60.17
69535;BME280;56754;51.568;5.048;2022-09-13T03:57:23;100933.69;;;21.70;60.74
69535;BME280;56754;51.568;5.048;2022-09-13T03:59:53;100935.63;;;21.69;60.72
69535;BME280;56754;51.568;5.048;2022-09-13T04:02:21;100937.56;;;21.69;60.67
69535;BME280;56754;51.568;5.048;2022-09-13T04:04:46;100941.44;;;21.68;60.47
69535;BME280;56754;51.568;5.048;2022-09-13T04:07:17;100942.59;;;21.67;60.78
69535;BME280;56754;51.568;5.048;2022-09-13T04:09:42;100939.88;;;21.67;61.08
69535;BME280;56754;51.568;5.048;2022-09-13T04:12:08;100943.00;;;21.65;61.35
69535;BME280;56754;51.568;5.048;2022-09-13T04:14:33;100940.66;;;21.64;61.18
69535;BME280;56754;51.568;5.048;2022-09-13T04:16:58;100942.19;;;21.65;61.09
69535;BME280;56754;51.568;5.048;2022-09-13T04:19:24;100937.94;;;21.64;61.38
69535;BME280;56754;51.568;5.048;2022-09-13T04:21:51;100943.38;;;21.64;61.43
69535;BME280;56754;51.568;5.048;2022-09-13T04:24:17;100949.19;;;21.62;61.48
69535;BME280;56754;51.568;5.048;2022-09-13T04:26:43;100953.06;;;21.61;61.60
69535;BME280;56754;51.568;5.048;2022-09-13T04:29:09;100957.72;;;21.61;61.69
69535;BME280;56754;51.568;5.048;2022-09-13T04:31:34;100958.91;;;21.60;61.53
69535;BME280;56754;51.568;5.048;2022-09-13T04:34:00;100957.31;;;21.58;61.50
69535;BME280;56754;51.568;5.048;2022-09-13T04:36:25;100960.81;;;21.59;61.12
69535;BME280;56754;51.568;5.048;2022-09-13T04:38:50;100961.22;;;21.57;61.10
69535;BME280;56754;51.568;5.048;2022-09-13T04:41:16;100963.94;;;21.57;61.38
69535;BME280;56754;51.568;5.048;2022-09-13T04:43:41;100964.31;;;21.56;61.16
69535;BME280;56754;51.568;5.048;2022-09-13T04:46:06;100954.59;;;21.55;61.64
69535;BME280;56754;51.568;5.048;2022-09-13T04:48:32;100956.53;;;21.54;61.62
69535;BME280;56754;51.568;5.048;2022-09-13T04:51:03;100960.44;;;21.53;61.57
69535;BME280;56754;51.568;5.048;2022-09-13T04:53:32;100953.81;;;21.51;61.65
69535;BME280;56754;51.568;5.048;2022-09-13T04:56:02;100953.81;;;21.51;62.17
69535;BME280;56754;51.568;5.048;2022-09-13T04:58:28;100952.22;;;21.50;61.68
69535;BME280;56754;51.568;5.048;2022-09-13T05:01:00;100956.88;;;21.49;61.93
69535;BME280;56754;51.568;5.048;2022-09-13T05:03:25;100963.50;;;21.48;61.92
69535;BME280;56754;51.568;5.048;2022-09-13T05:05:50;100957.28;;;21.48;62.27
69535;BME280;56754;51.568;5.048;2022-09-13T05:08:15;100959.19;;;21.47;62.06
69535;BME280;56754;51.568;5.048;2022-09-13T05:10:41;100956.88;;;21.46;62.13
69535;BME280;56754;51.568;5.048;2022-09-13T05:13:06;100962.31;;;21.46;62.20
69535;BME280;56754;51.568;5.048;2022-09-13T05:15:31;100960.38;;;21.46;62.07
69535;BME280;56754;51.568;5.048;2022-09-13T05:17:56;100958.03;;;21.45;62.27
69535;BME280;56754;51.568;5.048;2022-09-13T05:20:22;100964.63;;;21.44;62.20
69535;BME280;56754;51.568;5.048;2022-09-13T05:22:47;100961.91;;;21.44;62.24
69535;BME280;56754;51.568;5.048;2022-09-13T05:25:12;100955.69;;;21.43;62.39
69535;BME280;56754;51.568;5.048;2022-09-13T05:27:37;100969.28;;;21.43;62.33
69535;BME280;56754;51.568;5.048;2022-09-13T05:30:03;100965.03;;;21.42;62.43
69535;BME280;56754;51.568;5.048;2022-09-13T05:32:30;100965.03;;;21.42;62.39
69535;BME280;56754;51.568;5.048;2022-09-13T05:34:55;100965.03;;;21.42;62.58
69535;BME280;56754;51.568;5.048;2022-09-13T05:37:20;100967.75;;;21.42;62.57
69535;BME280;56754;51.568;5.048;2022-09-13T05:39:46;100971.22;;;21.43;62.54
69535;BME280;56754;51.568;5.048;2022-09-13T05:42:11;100977.44;;;21.43;62.34
69535;BME280;56754;51.568;5.048;2022-09-13T05:44:36;100976.66;;;21.43;62.34
69535;BME280;56754;51.568;5.048;2022-09-13T05:47:02;100970.47;;;21.42;62.12
69535;BME280;56754;51.568;5.048;2022-09-13T05:49:27;100973.94;;;21.43;62.27
69535;BME280;56754;51.568;5.048;2022-09-13T05:51:52;100969.69;;;21.42;62.45
69535;BME280;56754;51.568;5.048;2022-09-13T05:54:18;100967.75;;;21.42;62.29
69535;BME280;56754;51.568;5.048;2022-09-13T05:56:43;100968.88;;;21.41;62.26
69535;BME280;56754;51.568;5.048;2022-09-13T05:59:12;100978.97;;;21.41;62.21
69535;BME280;56754;51.568;5.048;2022-09-13T06:01:37;100982.47;;;21.41;62.01
69535;BME280;56754;51.568;5.048;2022-09-13T06:04:03;100973.19;;;21.42;62.45
69535;BME280;56754;51.568;5.048;2022-09-13T06:06:28;100971.59;;;21.41;62.66
69535;BME280;56754;51.568;5.048;2022-09-13T06:08:55;100977.03;;;21.41;62.66
69535;BME280;56754;51.568;5.048;2022-09-13T06:11:22;100976.66;;;21.43;62.77
69535;BME280;56754;51.568;5.048;2022-09-13T06:13:47;100972.41;;;21.42;62.72
69535;BME280;56754;51.568;5.048;2022-09-13T06:16:13;100966.16;;;21.41;62.71
69535;BME280;56754;51.568;5.048;2022-09-13T06:18:38;100970.03;;;21.40;62.93
69535;BME280;56754;51.568;5.048;2022-09-13T06:21:14;100966.16;;;21.41;62.76
69535;BME280;56754;51.568;5.048;2022-09-13T06:23:39;100969.69;;;21.42;62.71
69535;BME280;56754;51.568;5.048;2022-09-13T06:26:10;100978.63;;;21.42;63.05
69535;BME280;56754;51.568;5.048;2022-09-13T06:28:36;100971.22;;;21.43;63.28
69535;BME280;56754;51.568;5.048;2022-09-13T06:31:07;100975.50;;;21.40;63.01
69535;BME280;56754;51.568;5.048;2022-09-13T06:33:33;100973.16;;;21.39;62.60
69535;BME280;56754;51.568;5.048;2022-09-13T06:36:00;100970.03;;;21.40;62.30
69535;BME280;56754;51.568;5.048;2022-09-13T06:38:25;100968.50;;;21.39;62.41
69535;BME280;56754;51.568;5.048;2022-09-13T06:41:05;100972.78;;;21.40;62.47
69535;BME280;56754;51.568;5.048;2022-09-13T06:43:31;100968.50;;;21.39;62.06
69535;BME280;56754;51.568;5.048;2022-09-13T06:46:16;100973.94;;;21.39;62.13
69535;BME280;56754;51.568;5.048;2022-09-13T06:48:43;100965.38;;;21.37;61.81
69535;BME280;56754;51.568;5.048;2022-09-13T06:51:12;100972.34;;;21.38;61.73
69535;BME280;56754;51.568;5.048;2022-09-13T06:53:38;100978.59;;;21.39;61.83
69535;BME280;56754;51.568;5.048;2022-09-13T06:56:11;100965.38;;;21.37;61.45
69535;BME280;56754;51.568;5.048;2022-09-13T06:58:38;100967.34;;;21.40;61.75
69535;BME280;56754;51.568;5.048;2022-09-13T07:01:08;100966.16;;;21.41;61.50
69535;BME280;56754;51.568;5.048;2022-09-13T07:03:33;100966.97;;;21.42;61.73
69535;BME280;56754;51.568;5.048;2022-09-13T07:05:58;100968.50;;;21.43;61.58
69535;BME280;56754;51.568;5.048;2022-09-13T07:08:24;100958.41;;;21.43;61.82
69535;BME280;56754;51.568;5.048;2022-09-13T07:10:49;100967.75;;;21.46;61.74
69535;BME280;56754;51.568;5.048;2022-09-13T07:13:14;100967.78;;;21.49;61.84
69535;BME280;56754;51.568;5.048;2022-09-13T07:15:39;100969.34;;;21.54;61.72
69535;BME280;56754;51.568;5.048;2022-09-13T07:18:05;100967.03;;;21.56;61.89
69535;BME280;56754;51.568;5.048;2022-09-13T07:20:30;100972.50;;;21.60;61.87
69535;BME280;56754;51.568;5.048;2022-09-13T07:22:55;100974.81;;;21.61;61.52
69535;BME280;56754;51.568;5.048;2022-09-13T07:25:20;100981.03;;;21.62;61.63
69535;BME280;56754;51.568;5.048;2022-09-13T07:27:46;100981.44;;;21.64;61.70
69535;BME280;56754;51.568;5.048;2022-09-13T07:30:11;100977.97;;;21.67;61.65
69535;BME280;56754;51.568;5.048;2022-09-13T07:32:36;100987.31;;;21.69;61.42
69535;BME280;56754;51.568;5.048;2022-09-13T07:35:02;100994.28;;;21.70;61.50
69535;BME280;56754;51.568;5.048;2022-09-13T07:37:27;100987.31;;;21.73;61.54
69535;BME280;56754;51.568;5.048;2022-09-13T07:39:52;100983.84;;;21.76;61.53
69535;BME280;56754;51.568;5.048;2022-09-13T07:42:18;100999.41;;;21.83;61.46
69535;BME280;56754;51.568;5.048;2022-09-13T07:44:43;100995.97;;;21.89;61.59
69535;BME280;56754;51.568;5.048;2022-09-13T07:47:08;100996.75;;;21.97;61.45
69535;BME280;56754;51.568;5.048;2022-09-13T07:49:33;100994.03;;;22.00;61.47
69535;BME280;56754;51.568;5.048;2022-09-13T07:51:59;100996.00;;;22.00;61.84
69535;BME280;56754;51.568;5.048;2022-09-13T07:54:24;100995.63;;;22.01;61.86
69535;BME280;56754;51.568;5.048;2022-09-13T07:56:49;101001.84;;;22.02;62.26
69535;BME280;56754;51.568;5.048;2022-09-13T07:59:16;101000.28;;;22.04;62.14
69535;BME280;56754;51.568;5.048;2022-09-13T08:01:46;101001.47;;;22.07;61.89
69535;BME280;56754;51.568;5.048;2022-09-13T08:04:15;101005.38;;;22.10;62.64
69535;BME280;56754;51.568;5.048;2022-09-13T08:06:40;101011.19;;;22.12;63.46
69535;BME280;56754;51.568;5.048;2022-09-13T08:09:07;101008.09;;;22.13;62.38
69535;BME280;56754;51.568;5.048;2022-09-13T08:11:44;101003.84;;;22.16;64.18
69535;BME280;56754;51.568;5.048;2022-09-13T08:14:12;101000.75;;;22.17;63.16
69535;BME280;56754;51.568;5.048;2022-09-13T08:16:38;101006.97;;;22.18;63.87
69535;BME280;56754;51.568;5.048;2022-09-13T08:19:03;101003.47;;;22.17;63.97
69535;BME280;56754;51.568;5.048;2022-09-13T08:21:33;101014.00;;;22.19;63.67
69535;BME280;56754;51.568;5.048;2022-09-13T08:23:59;101007.38;;;22.20;63.29
69535;BME280;56754;51.568;5.048;2022-09-13T08:26:24;101016.31;;;22.20;63.40
69535;BME280;56754;51.568;5.048;2022-09-13T08:28:55;101015.94;;;22.22;63.04
69535;BME280;56754;51.568;5.048;2022-09-13T08:31:20;101022.16;;;22.22;62.20
69535;BME280;56754;51.568;5.048;2022-09-13T08:33:46;101027.22;;;22.24;63.10
69535;BME280;56754;51.568;5.048;2022-09-13T08:36:11;101029.56;;;22.25;62.68
69535;BME280;56754;51.568;5.048;2022-09-13T08:38:37;101022.94;;;22.26;62.51
69535;BME280;56754;51.568;5.048;2022-09-13T08:41:11;101023.34;;;22.29;62.76
69535;BME280;56754;51.568;5.048;2022-09-13T08:46:21;101018.31;;;22.34;62.45
69535;BME280;56754;51.568;5.048;2022-09-13T08:51:52;101009.38;;;22.37;62.15
69535;BME280;56754;51.568;5.048;2022-09-13T08:54:19;101004.31;;;22.39;61.86
69535;BME280;56754;51.568;5.048;2022-09-13T09:05:15;101002.00;;;22.48;62.73
69535;BME280;56754;51.568;5.048;2022-09-13T09:07:44;100999.28;;;22.52;62.86
69535;BME280;56754;51.568;5.048;2022-09-13T09:10:17;101001.22;;;22.55;62.94
69535;BME280;56754;51.568;5.048;2022-09-13T09:12:48;100995.78;;;22.59;63.17
69535;BME280;56754;51.568;5.048;2022-09-13T09:17:53;100991.91;;;22.63;62.68
69535;BME280;56754;51.568;5.048;2022-09-13T09:23:12;100997.75;;;22.69;62.91
69535;BME280;56754;51.568;5.048;2022-09-13T09:25:39;100999.31;;;22.70;62.65
69535;BME280;56754;51.568;5.048;2022-09-13T09:28:16;100998.13;;;22.71;62.59
69535;BME280;56754;51.568;5.048;2022-09-13T09:33:59;101010.97;;;22.70;62.46
69535;BME280;56754;51.568;5.048;2022-09-13T09:37:01;101000.84;;;22.71;62.35
69535;BME280;56754;51.568;5.048;2022-09-13T09:39:30;100998.91;;;22.71;62.57
69535;BME280;56754;51.568;5.048;2022-09-13T09:41:56;101009.03;;;22.71;62.64
69535;BME280;56754;51.568;5.048;2022-09-13T09:44:24;100999.72;;;22.72;62.63
69535;BME280;56754;51.568;5.048;2022-09-13T09:46:56;101004.75;;;22.74;62.59
69535;BME280;56754;51.568;5.048;2022-09-13T09:52:22;101003.22;;;22.76;62.41
69535;BME280;56754;51.568;5.048;2022-09-13T09:54:49;100998.53;;;22.77;62.50
69535;BME280;56754;51.568;5.048;2022-09-13T09:57:15;100997.38;;;22.78;62.28
69535;BME280;56754;51.568;5.048;2022-09-13T09:59:40;100998.94;;;22.79;62.19
69535;BME280;56754;51.568;5.048;2022-09-13T10:02:16;101000.09;;;22.81;62.34
69535;BME280;56754;51.568;5.048;2022-09-13T10:04:53;101002.06;;;22.84;62.21
69535;BME280;56754;51.568;5.048;2022-09-13T10:07:23;100995.41;;;22.85;61.99
69535;BME280;56754;51.568;5.048;2022-09-13T10:10:20;100995.41;;;22.85;61.89
69535;BME280;56754;51.568;5.048;2022-09-13T10:12:53;100993.09;;;22.87;61.93
69535;BME280;56754;51.568;5.048;2022-09-13T10:15:27;100983.75;;;22.88;61.85
69535;BME280;56754;51.568;5.048;2022-09-13T10:18:15;100997.00;;;22.90;61.84
69535;BME280;56754;51.568;5.048;2022-09-13T10:20:41;100993.88;;;22.91;61.91
69535;BME280;56754;51.568;5.048;2022-09-13T10:25:39;100990.38;;;22.94;61.69
69535;BME280;56754;51.568;5.048;2022-09-13T10:28:10;100979.47;;;22.94;61.74
69535;BME280;56754;51.568;5.048;2022-09-13T10:30:45;100990.00;;;22.96;61.86
69535;BME280;56754;51.568;5.048;2022-09-13T10:33:34;100981.44;;;22.98;61.45
69535;BME280;56754;51.568;5.048;2022-09-13T10:36:15;100982.59;;;23.00;61.43
69535;BME280;56754;51.568;5.048;2022-09-13T10:38:50;100988.81;;;23.01;61.62
69535;BME280;56754;51.568;5.048;2022-09-13T10:41:25;100983.38;;;23.01;61.45
69535;BME280;56754;51.568;5.048;2022-09-13T10:44:02;100971.31;;;23.02;61.61
69535;BME280;56754;51.568;5.048;2022-09-13T10:46:30;100993.91;;;23.02;61.57
69535;BME280;56754;51.568;5.048;2022-09-13T10:48:56;100981.03;;;23.03;61.51
69535;BME280;56754;51.568;5.048;2022-09-13T10:53:51;100968.97;;;23.04;61.52
69535;BME280;56754;51.568;5.048;2022-09-13T10:56:30;100969.75;;;23.04;61.15
69535;BME280;56754;51.568;5.048;2022-09-13T10:59:20;100969.38;;;23.06;61.12
69535;BME280;56754;51.568;5.048;2022-09-13T11:13:20;100952.22;;;23.09;60.82
69535;BME280;56754;51.568;5.048;2022-09-13T11:15:56;100949.13;;;23.10;60.96
69535;BME280;56754;51.568;5.048;2022-09-13T11:21:27;100956.50;;;23.13;60.91
69535;BME280;56754;51.568;5.048;2022-09-13T11:35:21;100953.38;;;23.22;60.55
69535;BME280;56754;51.568;5.048;2022-09-13T11:38:03;100947.94;;;23.22;60.63
69535;BME280;56754;51.568;5.048;2022-09-13T11:46:00;100953.38;;;23.26;60.64
69535;BME280;56754;51.568;5.048;2022-09-13T11:51:20;100951.41;;;23.26;60.60
69535;BME280;56754;51.568;5.048;2022-09-13T11:54:03;100952.97;;;23.27;60.70
69535;BME280;56754;51.568;5.048;2022-09-13T11:56:42;100952.97;;;23.27;60.89
69535;BME280;56754;51.568;5.048;2022-09-13T11:59:36;100951.41;;;23.26;60.83
69535;BME280;56754;51.568;5.048;2022-09-13T12:02:20;100951.41;;;23.26;61.01
69535;BME280;56754;51.568;5.048;2022-09-13T12:04:59;100948.69;;;23.26;61.01
69535;BME280;56754;51.568;5.048;2022-09-13T12:07:49;100953.38;;;23.26;61.16
69535;BME280;56754;51.568;5.048;2022-09-13T12:10:21;100947.16;;;23.25;60.92
69535;BME280;56754;51.568;5.048;2022-09-13T12:12:48;100942.47;;;23.26;60.89
69535;BME280;56754;51.568;5.048;2022-09-13T12:15:20;100937.38;;;23.28;60.73
69535;BME280;56754;51.568;5.048;2022-09-13T12:17:50;100935.81;;;23.30;60.92
69535;BME280;56754;51.568;5.048;2022-09-13T12:20:33;100931.53;;;23.33;60.76
69535;BME280;56754;51.568;5.048;2022-09-13T12:23:02;100934.66;;;23.35;60.63
69535;BME280;56754;51.568;5.048;2022-09-13T12:25:57;100936.97;;;23.36;60.72
69535;BME280;56754;51.568;5.048;2022-09-13T12:28:39;100935.03;;;23.37;60.43
69535;BME280;56754;51.568;5.048;2022-09-13T12:31:12;100939.28;;;23.42;60.34
69535;BME280;56754;51.568;5.048;2022-09-13T12:33:40;100933.03;;;23.48;60.63
69535;BME280;56754;51.568;5.048;2022-09-13T12:36:31;100929.16;;;23.49;60.17
69535;BME280;56754;51.568;5.048;2022-09-13T12:39:26;100934.59;;;23.49;60.21
69535;BME280;56754;51.568;5.048;2022-09-13T12:42:20;100932.25;;;23.51;60.03
69535;BME280;56754;51.568;5.048;2022-09-13T12:45:09;100938.09;;;23.53;60.30
69535;BME280;56754;51.568;5.048;2022-09-13T12:53:14;100938.06;;;23.57;59.98
69535;BME280;56754;51.568;5.048;2022-09-13T13:01:13;100926.75;;;23.62;59.82
69535;BME280;56754;51.568;5.048;2022-09-13T13:04:02;100931.44;;;23.61;59.84
69535;BME280;56754;51.568;5.048;2022-09-13T13:08:56;100925.56;;;23.63;59.77
69535;BME280;56754;51.568;5.048;2022-09-13T13:11:27;100929.88;;;23.64;59.90
69535;BME280;56754;51.568;5.048;2022-09-13T13:13:57;100935.34;;;23.64;59.77
69535;BME280;56754;51.568;5.048;2022-09-13T13:16:32;100936.09;;;23.65;59.88
69535;BME280;56754;51.568;5.048;2022-09-13T13:19:00;100928.31;;;23.63;59.71
69535;BME280;56754;51.568;5.048;2022-09-13T13:21:34;100922.84;;;23.63;59.69
69535;BME280;56754;51.568;5.048;2022-09-13T13:26:52;100925.97;;;23.65;59.59
69535;BME280;56754;51.568;5.048;2022-09-13T13:29:31;100924.41;;;23.64;59.68
69535;BME280;56754;51.568;5.048;2022-09-13T13:36:56;100915.03;;;23.69;59.58
69535;BME280;56754;51.568;5.048;2022-09-13T13:41:51;100922.09;;;23.70;59.64
69535;BME280;56754;51.568;5.048;2022-09-13T13:46:43;100919.72;;;23.75;59.21
69535;BME280;56754;51.568;5.048;2022-09-13T14:00:12;100911.16;;;23.70;59.64
69535;BME280;56754;51.568;5.048;2022-09-13T14:02:48;100911.53;;;23.68;59.46
69535;BME280;56754;51.568;5.048;2022-09-13T14:05:45;100918.94;;;23.68;59.51
69535;BME280;56754;51.568;5.048;2022-09-13T14:10:48;100921.25;;;23.69;59.73
69535;BME280;56754;51.568;5.048;2022-09-13T14:16:10;100921.66;;;23.68;59.83
69535;BME280;56754;51.568;5.048;2022-09-13T14:19:04;100915.81;;;23.69;59.79
69535;BME280;56754;51.568;5.048;2022-09-13T14:21:33;100917.75;;;23.69;59.64
69535;BME280;56754;51.568;5.048;2022-09-13T14:24:18;100916.97;;;23.68;59.74
69535;BME280;56754;51.568;5.048;2022-09-13T14:26:48;100917.75;;;23.69;59.85
69535;BME280;56754;51.568;5.048;2022-09-13T14:29:24;100912.28;;;23.69;60.08
69535;BME280;56754;51.568;5.048;2022-09-13T14:31:51;100921.66;;;23.68;59.92
69535;BME280;56754;51.568;5.048;2022-09-13T14:34:30;100919.31;;;23.66;59.93
69535;BME280;56754;51.568;5.048;2022-09-13T14:36:59;100919.31;;;23.66;60.12
69535;BME280;56754;51.568;5.048;2022-09-13T14:39:25;100921.28;;;23.66;59.96
69535;BME280;56754;51.568;5.048;2022-09-13T14:42:11;100919.31;;;23.66;60.01
69535;BME280;56754;51.568;5.048;2022-09-13T14:44:42;100924.78;;;23.66;60.10
69535;BME280;56754;51.568;5.048;2022-09-13T14:47:23;100929.47;;;23.66;60.02
69535;BME280;56754;51.568;5.048;2022-09-13T14:49:59;100927.91;;;23.65;60.17
69535;BME280;56754;51.568;5.048;2022-09-13T14:52:35;100938.84;;;23.61;60.11
69535;BME280;56754;51.568;5.048;2022-09-13T14:55:05;100932.22;;;23.58;59.91
69535;BME280;56754;51.568;5.048;2022-09-13T14:57:38;100928.31;;;23.59;60.38
69535;BME280;56754;51.568;5.048;2022-09-13T15:00:13;100931.47;;;23.58;60.00
69535;BME280;56754;51.568;5.048;2022-09-13T15:02:53;100924.03;;;23.58;59.94
69535;BME280;56754;51.568;5.048;2022-09-13T15:05:22;100926.00;;;23.58;59.92
69535;BME280;56754;51.568;5.048;2022-09-13T15:07:48;100918.19;;;23.56;59.95
69535;BME280;56754;51.568;5.048;2022-09-13T15:17:56;100909.63;;;23.54;60.21
69535;BME280;56754;51.568;5.048;2022-09-13T15:20:23;100906.91;;;23.54;60.04
69535;BME280;56754;51.568;5.048;2022-09-13T15:22:49;100911.56;;;23.54;60.00
69535;BME280;56754;51.568;5.048;2022-09-13T15:25:26;100899.50;;;23.55;60.22
69535;BME280;56754;51.568;5.048;2022-09-13T15:27:53;100905.75;;;23.55;60.37
69535;BME280;56754;51.568;5.048;2022-09-13T15:30:30;100896.38;;;23.56;60.19
69535;BME280;56754;51.568;5.048;2022-09-13T15:33:14;100902.59;;;23.57;60.11
69535;BME280;56754;51.568;5.048;2022-09-13T15:35:43;100895.22;;;23.57;60.13
69535;BME280;56754;51.568;5.048;2022-09-13T15:38:30;100885.06;;;23.58;60.01
69535;BME280;56754;51.568;5.048;2022-09-13T15:41:18;100884.66;;;23.59;59.95
69535;BME280;56754;51.568;5.048;2022-09-13T15:43:47;100898.72;;;23.58;59.99
69535;BME280;56754;51.568;5.048;2022-09-13T15:46:14;100896.38;;;23.56;60.15
69535;BME280;56754;51.568;5.048;2022-09-13T15:48:39;100897.56;;;23.55;60.22
69535;BME280;56754;51.568;5.048;2022-09-13T15:51:13;100899.50;;;23.55;60.42
69535;BME280;56754;51.568;5.048;2022-09-13T15:53:44;100900.66;;;23.54;60.41
69535;BME280;56754;51.568;5.048;2022-09-13T15:56:18;100894.84;;;23.52;60.46